Terminal Aerodrome Forecast
Issued by NWS

Home | Current Version | Previous Version | Graphics & Text | Print | Product List | Glossary On
Versions: 1 2 3 4 5 6 7 8 9 10 11 12 13 14 15 16 17 18 19 20 21 22
000
FTUS43 KMPX 160536
TAFRWF
TAF
KRWF 160536Z 1606/1706 12007KT P6SM SCT100 OVC200
     FM160800 13008KT P6SM VCSH OVC090
     FM160900 14008KT 5SM SHRA VCTS OVC040CB
      TEMPO 1609/1612 3SM TSRA OVC020CB
     FM161200 13007KT 5SM -SHRA BR OVC008
     FM162000 13007KT 5SM BR OVC020
     FM162200 16008KT 6SM BR OVC025
      TEMPO 1622/1702 3SM TSRA OVC030CB
     FM170300 05006KT 4SM BR OVC012=

USA.gov is the U.S. government's official web portal to all federal, state and local government web resources and services.